createdAt,value
2018-12-30T00:00:15.405Z,8.42
2018-12-30T00:01:15.417Z,8.33
2018-12-30T00:02:15.387Z,8.32
2018-12-30T00:03:15.380Z,8.29
2018-12-30T00:04:15.362Z,8.44
2018-12-30T00:05:15.382Z,8.36
2018-12-30T00:06:15.351Z,8.28
2018-12-30T00:07:15.320Z,8.37
2018-12-30T00:08:15.315Z,8.35
2018-12-30T00:09:15.297Z,8.37
2018-12-30T00:10:15.285Z,8.37
2018-12-30T00:11:15.297Z,8.39
2018-12-30T00:12:15.262Z,8.45
2018-12-30T00:13:15.250Z,8.36
2018-12-30T00:14:15.259Z,8.45
2018-12-30T00:15:15.229Z,8.36
2018-12-30T00:16:15.245Z,8.42
2018-12-30T00:17:15.204Z,8.36
2018-12-30T00:18:15.196Z,8.40
2018-12-30T00:19:15.187Z,8.42
2018-12-30T00:20:15.170Z,8.40
2018-12-30T00:21:15.156Z,8.44
2018-12-30T00:22:15.178Z,8.40
2018-12-30T00:23:15.154Z,8.39
2018-12-30T00:24:15.124Z,8.35
2018-12-30T00:25:15.112Z,8.36
2018-12-30T00:26:15.105Z,8.22
2018-12-30T00:27:15.111Z,8.32
2018-12-30T00:28:15.107Z,8.26
2018-12-30T00:29:15.069Z,8.30
2018-12-30T00:30:15.052Z,8.28
2018-12-30T00:31:15.056Z,8.21
2018-12-30T00:32:15.128Z,8.21
2018-12-30T00:33:15.027Z,8.26
2018-12-30T00:34:15.009Z,8.29
2018-12-30T00:35:14.999Z,8.39
2018-12-30T00:36:14.995Z,8.33
2018-12-30T00:37:15.002Z,8.30
2018-12-30T00:38:14.962Z,8.25
2018-12-30T00:39:14.995Z,8.25
2018-12-30T00:40:14.936Z,8.33
2018-12-30T00:41:14.940Z,8.33
2018-12-30T00:42:14.948Z,8.21
2018-12-30T00:43:14.908Z,8.18
2018-12-30T00:44:14.896Z,8.33
2018-12-30T00:45:14.888Z,8.26
2018-12-30T00:46:14.871Z,8.12
2018-12-30T00:47:14.872Z,8.25
2018-12-30T00:48:14.878Z,8.10
2018-12-30T00:49:14.838Z,8.14
2018-12-30T00:50:14.821Z,8.20
2018-12-30T00:51:17.103Z,8.15
2018-12-30T00:52:14.838Z,8.11
2018-12-30T00:53:14.813Z,8.15
2018-12-30T00:54:14.782Z,8.37
2018-12-30T00:55:14.764Z,8.44
2018-12-30T00:56:14.756Z,8.55
2018-12-30T00:57:14.744Z,8.48
2018-12-30T00:58:14.762Z,8.37
2018-12-30T00:59:14.723Z,8.35
2018-12-30T01:00:14.714Z,8.33
2018-12-30T01:01:14.700Z,8.29
2018-12-30T14:16:58.456Z,8.65
2018-12-30T14:17:58.456Z,8.69
2018-12-30T14:18:58.405Z,8.75
2018-12-30T14:19:58.394Z,8.71
2018-12-30T14:20:58.382Z,8.68
2018-12-30T14:21:58.370Z,8.66
2018-12-30T14:22:58.357Z,8.69
2018-12-30T14:23:58.368Z,8.68
2018-12-30T14:24:58.334Z,8.69
2018-12-30T14:25:58.324Z,8.83
2018-12-30T14:27:00.037Z,8.79
2018-12-30T14:27:58.320Z,8.86
2018-12-30T14:28:58.287Z,8.66
2018-12-30T14:29:58.277Z,8.72
2018-12-30T14:30:58.264Z,8.66
2018-12-30T14:31:58.253Z,8.62
2018-12-30T14:32:58.264Z,8.60
2018-12-30T14:33:58.231Z,8.60
2018-12-30T14:34:58.218Z,8.54
2018-12-30T14:35:58.207Z,8.62
2018-12-30T14:36:58.195Z,8.51
2018-12-30T14:37:58.182Z,8.48
2018-12-30T14:38:58.189Z,8.47
2018-12-30T14:39:58.160Z,8.50
2018-12-30T14:40:58.150Z,8.47
2018-12-30T14:41:58.135Z,8.50
2018-12-30T14:42:58.124Z,8.39
2018-12-30T14:43:58.132Z,8.37
2018-12-30T14:44:58.100Z,8.45
2018-12-30T14:45:58.091Z,8.44
2018-12-30T14:46:58.076Z,8.36
2018-12-30T14:47:58.068Z,8.45
2018-12-30T14:48:58.078Z,8.44
2018-12-30T14:49:58.042Z,8.42
2018-12-30T14:50:58.031Z,8.33
2018-12-30T14:51:58.021Z,8.36
2018-12-30T14:52:58.006Z,8.33
2018-12-30T14:53:57.995Z,8.22
2018-12-30T14:55:03.560Z,8.29
2018-12-30T14:55:58.971Z,8.18
2018-12-30T14:56:57.961Z,8.25
2018-12-30T14:57:57.952Z,8.18
2018-12-30T14:58:57.936Z,8.20
2018-12-30T14:59:57.948Z,8.12
2018-12-30T15:00:57.912Z,8.17
2018-12-30T15:01:57.901Z,8.10
2018-12-30T15:02:57.889Z,8.03
2018-12-30T15:03:57.877Z,8.10
2018-12-30T15:04:57.867Z,8.00
2018-12-30T15:05:57.872Z,8.02
2018-12-30T15:06:57.845Z,7.94
2018-12-30T15:07:57.832Z,8.02
2018-12-30T15:08:57.819Z,7.94
2018-12-30T15:09:57.807Z,7.97
2018-12-30T15:10:57.815Z,7.92
2018-12-30T15:11:57.787Z,7.89
2018-12-30T15:12:57.776Z,7.97
2018-12-30T15:13:57.761Z,7.84
2018-12-30T15:14:57.749Z,7.90
2018-12-30T15:15:57.756Z,7.81
2018-12-30T15:16:59.450Z,7.87
2018-12-30T15:17:57.714Z,7.92
2018-12-30T15:18:57.703Z,7.87
2018-12-30T15:19:57.691Z,7.93
2018-12-30T15:20:57.702Z,7.87
2018-12-30T15:21:57.669Z,7.84
2018-12-30T15:22:57.656Z,7.78
2018-12-30T15:23:57.644Z,7.84
2018-12-30T15:24:57.632Z,7.77
2018-12-30T15:25:57.622Z,7.79
2018-12-30T15:26:57.628Z,7.75
2018-12-30T15:27:57.598Z,7.75
2018-12-30T15:28:57.586Z,7.72
2018-12-30T15:29:57.575Z,7.75
2018-12-30T15:30:57.563Z,7.78
2018-12-30T15:31:57.573Z,7.78
2018-12-30T15:32:57.542Z,7.85
2018-12-30T15:33:57.527Z,7.85
2018-12-30T15:34:57.515Z,7.67
2018-12-30T15:35:57.525Z,7.81
2018-12-30T15:36:57.494Z,7.82
2018-12-30T15:37:57.483Z,7.77
2018-12-30T15:38:57.472Z,7.66
2018-12-30T15:39:57.459Z,7.62
2018-12-30T15:40:57.465Z,7.82
2018-12-30T15:41:57.436Z,7.78
2018-12-30T15:42:57.425Z,7.81
2018-12-30T15:43:57.413Z,7.81
2018-12-30T15:44:57.401Z,7.87
2018-12-30T15:45:57.408Z,7.84
2018-12-30T15:46:57.378Z,7.71
2018-12-30T15:47:57.367Z,7.69
2018-12-30T15:48:57.358Z,7.72
2018-12-30T15:49:57.349Z,7.71
2018-12-30T15:50:57.350Z,7.72
2018-12-30T15:51:57.320Z,7.67
2018-12-30T15:52:57.307Z,7.69
2018-12-30T15:53:57.296Z,7.63
2018-12-30T15:54:57.286Z,7.77
2018-12-30T15:55:57.297Z,7.69
2018-12-30T15:56:57.261Z,7.66
2018-12-30T15:57:57.251Z,7.69
2018-12-30T15:58:57.241Z,7.82
2018-12-30T15:59:57.227Z,7.77
2018-12-30T16:00:57.217Z,7.66
2018-12-30T16:01:57.223Z,7.74
2018-12-30T16:02:57.194Z,7.71
2018-12-30T16:03:57.180Z,7.66
2018-12-30T16:04:57.171Z,7.67
2018-12-30T16:05:57.713Z,7.69
2018-12-30T16:06:57.165Z,7.72
2018-12-30T16:07:57.135Z,7.74
2018-12-30T16:08:57.122Z,7.72
2018-12-30T16:09:57.112Z,7.78
2018-12-30T16:10:57.100Z,7.72
2018-12-30T16:11:57.108Z,7.79
2018-12-30T16:12:57.077Z,7.63
2018-12-30T16:13:57.065Z,7.77
2018-12-30T16:14:57.054Z,7.82
2018-12-30T16:15:57.041Z,7.67
2018-12-30T16:16:57.053Z,7.84
2018-12-30T16:17:57.019Z,7.78
2018-12-30T16:18:57.008Z,7.82
2018-12-30T16:19:56.995Z,7.75
2018-12-30T16:20:56.985Z,7.82
2018-12-30T16:21:56.971Z,7.82
2018-12-30T16:22:56.980Z,7.77
2018-12-30T16:23:56.949Z,7.87
2018-12-30T16:24:56.937Z,7.78
2018-12-30T16:25:56.925Z,7.84
2018-12-30T16:26:56.915Z,7.85
2018-12-30T16:27:56.922Z,7.81
2018-12-30T16:28:56.890Z,7.85
2018-12-30T16:29:56.879Z,7.87
2018-12-30T16:30:56.867Z,7.84
2018-12-30T16:31:56.858Z,7.77
2018-12-30T16:32:56.862Z,7.87
2018-12-30T16:33:56.832Z,7.81
2018-12-30T16:34:56.822Z,7.81
2018-12-30T16:35:56.811Z,7.84
2018-12-30T16:36:56.799Z,7.79
2018-12-30T16:37:56.806Z,7.85
2018-12-30T16:38:56.777Z,7.79
2018-12-30T16:39:56.764Z,7.72
2018-12-30T16:40:56.756Z,7.67
2018-12-30T16:41:57.924Z,7.63
2018-12-30T16:42:56.747Z,7.69
2018-12-30T16:43:56.717Z,7.66
2018-12-30T16:44:56.707Z,7.67
2018-12-30T16:45:56.694Z,7.71
2018-12-30T16:46:56.683Z,7.72
2018-12-30T16:47:56.693Z,7.69
2018-12-30T16:48:56.658Z,7.74
2018-12-30T16:49:56.647Z,7.63
2018-12-30T16:50:56.635Z,7.71
2018-12-30T16:51:56.624Z,7.69
2018-12-30T16:52:56.633Z,7.71
2018-12-30T16:53:56.605Z,7.75
2018-12-30T16:54:56.589Z,7.71
2018-12-30T16:55:56.582Z,7.72
2018-12-30T16:56:56.566Z,7.72
2018-12-30T16:57:56.596Z,7.69
2018-12-30T16:58:56.545Z,7.66
2018-12-30T16:59:56.531Z,7.69
2018-12-30T17:00:56.520Z,7.72
2018-12-30T17:01:56.508Z,7.78
2018-12-30T17:02:56.499Z,7.77
2018-12-30T17:03:56.504Z,7.72
2018-12-30T17:04:56.473Z,7.69
2018-12-30T17:05:56.462Z,7.72
2018-12-30T17:06:56.450Z,7.69
2018-12-30T17:07:56.439Z,7.63
2018-12-30T17:08:56.446Z,7.63
2018-12-30T17:09:56.416Z,7.62
2018-12-30T17:10:56.404Z,7.72
2018-12-30T17:11:56.397Z,7.59
2018-12-30T17:12:56.383Z,7.59
2018-12-30T17:13:56.390Z,7.59
2018-12-30T17:14:56.358Z,7.71
2018-12-30T17:15:56.346Z,7.67
2018-12-30T17:16:56.335Z,7.67
2018-12-30T17:17:56.322Z,7.69
2018-12-30T17:18:56.361Z,7.59
2018-12-30T17:19:56.299Z,7.66
2018-12-30T17:20:56.288Z,7.72
2018-12-30T17:21:56.276Z,7.59
2018-12-30T17:22:56.267Z,7.66
2018-12-30T17:23:56.271Z,7.62
2018-12-30T17:24:56.243Z,7.63
2018-12-30T17:25:56.229Z,7.74
2018-12-30T17:26:56.224Z,7.63
2018-12-30T17:27:56.206Z,7.62
2018-12-30T17:28:56.214Z,7.60
2018-12-30T17:29:56.183Z,7.67
2018-12-30T17:30:56.171Z,7.72
2018-12-30T17:31:56.161Z,7.66
2018-12-30T17:32:56.149Z,7.67
2018-12-30T17:33:56.155Z,7.66
2018-12-30T17:34:56.126Z,7.62
2018-12-30T17:35:56.116Z,7.62
2018-12-30T17:36:56.102Z,7.67
2018-12-30T17:37:56.091Z,7.63
2018-12-30T17:38:56.099Z,7.62
2018-12-30T17:39:56.069Z,7.63
2018-12-30T17:41:01.497Z,7.63
2018-12-30T17:41:57.043Z,7.62
2018-12-30T17:42:56.034Z,7.53
2018-12-30T17:43:56.045Z,7.66
2018-12-30T17:44:56.009Z,7.63
2018-12-30T17:45:56.000Z,7.59
2018-12-30T17:46:55.987Z,7.56
2018-12-30T17:47:55.974Z,7.60
2018-12-30T17:48:55.962Z,7.58
2018-12-30T17:49:55.970Z,7.52
2018-12-30T17:50:55.942Z,7.60
2018-12-30T17:51:55.930Z,7.66
2018-12-30T17:52:55.916Z,7.58
2018-12-30T17:53:55.928Z,7.47
2018-12-30T17:54:55.894Z,7.56
2018-12-30T17:55:55.882Z,7.56
2018-12-30T17:56:55.875Z,7.49
2018-12-30T17:57:55.859Z,7.53
2018-12-30T17:58:55.849Z,7.58
2018-12-30T17:59:55.855Z,7.60
2018-12-30T18:00:55.825Z,7.55
2018-12-30T18:01:55.812Z,7.56
2018-12-30T18:02:55.802Z,7.53
2018-12-30T18:03:55.790Z,7.59
2018-12-30T18:04:55.796Z,7.40
2018-12-30T18:05:55.764Z,7.52
2018-12-30T18:06:55.755Z,7.53
2018-12-30T18:07:55.742Z,7.62
2018-12-30T18:08:55.732Z,7.62
2018-12-30T18:09:55.737Z,7.63
2018-12-30T18:10:55.707Z,7.53
2018-12-30T18:11:55.695Z,7.67
2018-12-30T18:12:55.683Z,7.59
2018-12-30T18:13:55.671Z,7.59
2018-12-30T18:14:55.679Z,7.59
2018-12-30T18:15:55.650Z,7.58
2018-12-30T18:16:55.638Z,7.52
2018-12-30T18:17:55.625Z,7.59
2018-12-30T18:18:55.614Z,7.52
2018-12-30T18:19:55.624Z,7.67
2018-12-30T18:20:55.591Z,7.66
2018-12-30T18:21:55.579Z,7.62
2018-12-30T18:22:55.567Z,7.60
2018-12-30T18:23:55.556Z,7.60
2018-12-30T18:24:55.545Z,7.59
2018-12-30T18:25:58.782Z,7.59
2018-12-30T18:26:55.522Z,7.56
2018-12-30T18:27:55.510Z,7.55
2018-12-30T18:28:55.498Z,7.52
2018-12-30T18:29:55.486Z,7.60
2018-12-30T18:30:55.494Z,7.60
2018-12-30T18:31:55.467Z,7.60
2018-12-30T18:32:55.451Z,7.63
2018-12-30T18:33:55.441Z,7.56
2018-12-30T18:34:55.429Z,7.75
2018-12-30T18:35:55.435Z,7.67
2018-12-30T18:36:55.405Z,7.69
2018-12-30T18:37:55.394Z,7.59
2018-12-30T18:38:55.383Z,7.71
2018-12-30T18:39:55.370Z,7.67
2018-12-30T18:40:55.381Z,7.59
2018-12-30T18:41:55.347Z,7.60
2018-12-30T18:42:55.335Z,7.59
2018-12-30T18:43:55.324Z,7.74
2018-12-30T18:44:55.313Z,7.71
2018-12-30T18:45:55.321Z,7.77
2018-12-30T18:46:55.290Z,7.71
2018-12-30T18:47:55.278Z,7.75
2018-12-30T18:48:55.268Z,7.78
2018-12-30T18:49:55.256Z,7.77
2018-12-30T18:50:55.265Z,7.67
2018-12-30T18:51:55.233Z,7.69
2018-12-30T18:52:55.221Z,7.62
2018-12-30T18:53:55.214Z,7.71
2018-12-30T18:54:55.199Z,7.66
2018-12-30T18:55:55.210Z,7.72
2018-12-30T18:56:55.179Z,7.84
2018-12-30T18:57:55.163Z,7.66
2018-12-30T18:58:55.150Z,7.72
2018-12-30T18:59:55.139Z,7.69
2018-12-30T19:00:55.130Z,7.63
2018-12-30T19:01:55.134Z,7.63
2018-12-30T19:02:55.105Z,7.72
2018-12-30T19:03:55.095Z,7.71
2018-12-30T19:04:55.083Z,7.60
2018-12-30T19:05:55.070Z,7.72
2018-12-30T19:06:55.079Z,7.77
2018-12-30T19:07:55.048Z,7.71
2018-12-30T19:08:55.036Z,7.66
2018-12-30T19:09:55.028Z,7.74
2018-12-30T19:10:55.012Z,7.75
2018-12-30T19:11:55.028Z,7.72
2018-12-30T19:12:54.989Z,7.66
2018-12-30T19:13:54.977Z,7.71
2018-12-30T19:14:54.966Z,7.77
2018-12-30T19:15:54.956Z,7.75
2018-12-30T19:16:54.944Z,7.75
2018-12-30T19:17:54.949Z,7.69
2018-12-30T19:18:54.921Z,7.67
2018-12-30T19:19:54.908Z,7.74
2018-12-30T19:20:54.897Z,7.78
2018-12-30T19:21:54.925Z,7.74
2018-12-30T19:22:54.875Z,7.79
2018-12-30T19:23:54.864Z,7.79
2018-12-30T19:24:54.850Z,7.85
2018-12-30T19:26:01.058Z,7.78
2018-12-30T19:26:55.850Z,7.75
2018-12-30T19:27:54.815Z,7.82
2018-12-30T19:28:54.807Z,7.82
2018-12-30T19:29:54.792Z,7.79
2018-12-30T19:30:54.781Z,7.84
2018-12-30T19:31:54.771Z,7.81
2018-12-30T19:32:54.778Z,7.82
2018-12-30T19:33:54.750Z,7.84
2018-12-30T19:34:54.735Z,7.81
2018-12-30T19:35:54.723Z,7.81
2018-12-30T19:36:54.805Z,7.84
2018-12-30T19:37:54.718Z,7.84
2018-12-30T19:38:54.694Z,7.77
2018-12-30T19:39:54.677Z,7.92
2018-12-30T19:40:54.666Z,7.87
2018-12-30T19:41:54.654Z,7.77
2018-12-30T19:42:54.682Z,7.85
2018-12-30T19:43:54.630Z,7.89
2018-12-30T19:44:54.619Z,7.94
2018-12-30T19:45:54.607Z,7.87
2018-12-30T19:46:54.597Z,7.93
2018-12-30T19:47:54.584Z,7.96
2018-12-30T19:48:54.595Z,7.81
2018-12-30T19:49:54.561Z,7.82
2018-12-30T19:50:54.549Z,7.84
2018-12-30T19:51:54.540Z,7.87
2018-12-30T19:52:54.526Z,7.84
2018-12-30T19:53:54.533Z,7.85
2018-12-30T19:54:54.504Z,7.90
2018-12-30T19:55:54.491Z,7.96
2018-12-30T19:56:54.479Z,7.90
2018-12-30T19:57:54.469Z,7.84
2018-12-30T19:58:54.474Z,7.90
2018-12-30T19:59:54.446Z,7.90
2018-12-30T20:00:54.434Z,7.87
2018-12-30T20:01:54.423Z,7.85
2018-12-30T20:02:54.410Z,7.94
2018-12-30T20:03:55.415Z,8.00
2018-12-30T20:04:54.388Z,7.90
2018-12-30T20:05:54.377Z,7.93
2018-12-30T20:06:54.364Z,7.92
2018-12-30T20:07:54.352Z,7.92
2018-12-30T20:08:54.346Z,7.93
2018-12-30T20:09:54.348Z,7.93
2018-12-30T20:10:54.318Z,7.99
2018-12-30T20:11:54.307Z,7.97
2018-12-30T20:12:54.298Z,7.97
2018-12-30T20:13:54.285Z,8.00
2018-12-30T20:14:54.291Z,8.00
2018-12-30T20:15:54.260Z,7.96
2018-12-30T20:16:54.248Z,7.99
2018-12-30T20:17:54.237Z,7.97
2018-12-30T20:18:54.231Z,8.00
2018-12-30T20:19:54.233Z,7.97
2018-12-30T20:20:54.205Z,7.96
2018-12-30T20:21:54.190Z,7.94
2018-12-30T20:22:54.183Z,8.02
2018-12-30T20:23:54.168Z,7.99
2018-12-30T20:24:54.178Z,8.04
2018-12-30T20:25:54.144Z,8.08
2018-12-30T20:26:54.133Z,8.10
2018-12-30T20:27:54.137Z,8.03
2018-12-30T20:28:54.110Z,8.07
2018-12-30T20:29:54.116Z,8.12
2018-12-30T20:30:54.085Z,8.03
2018-12-30T20:31:54.077Z,8.03
2018-12-30T20:32:54.063Z,8.11
2018-12-30T20:33:54.052Z,8.15
2018-12-30T20:34:54.062Z,8.12
2018-12-30T20:35:54.027Z,8.10
2018-12-30T20:36:54.018Z,8.03
2018-12-30T20:37:54.005Z,8.07
2018-12-30T20:38:53.993Z,8.02
2018-12-30T20:39:53.985Z,7.89
2018-12-30T20:40:53.991Z,8.04
2018-12-30T20:41:53.966Z,7.94
2018-12-30T20:42:53.947Z,7.94
2018-12-30T20:43:53.936Z,7.97
2018-12-30T20:44:53.923Z,7.99
2018-12-30T20:45:53.931Z,8.03
2018-12-30T20:46:53.902Z,7.93
2018-12-30T20:47:53.890Z,7.92
2018-12-30T20:48:53.880Z,8.00
2018-12-30T20:49:53.874Z,7.96
2018-12-30T20:50:53.874Z,7.92
2018-12-30T20:51:53.847Z,7.96
2018-12-30T20:52:53.844Z,7.99
2018-12-30T22:44:25.346Z,8.14
2018-12-30T22:45:25.317Z,8.08
2018-12-30T22:46:25.305Z,8.17
2018-12-30T22:47:25.311Z,8.12
2018-12-30T22:48:25.282Z,8.18
2018-12-30T22:49:25.271Z,8.22
2018-12-30T22:50:25.261Z,8.08
2018-12-30T22:51:25.249Z,8.21
2018-12-30T22:52:25.257Z,8.14
2018-12-30T22:53:25.223Z,8.15
2018-12-30T22:54:25.211Z,8.20
2018-12-30T22:55:25.199Z,8.12
2018-12-30T22:56:25.188Z,8.25
2018-12-30T22:57:25.176Z,8.18
2018-12-30T22:58:25.184Z,8.21
2018-12-30T22:59:25.153Z,8.12
2018-12-30T23:00:25.141Z,8.11
2018-12-30T23:01:25.131Z,8.17
2018-12-30T23:02:25.121Z,8.10
2018-12-30T23:03:25.130Z,8.33
2018-12-30T23:04:25.093Z,8.20
2018-12-30T23:05:25.083Z,8.15
2018-12-30T23:06:25.071Z,8.08
2018-12-30T23:07:25.061Z,8.12
2018-12-30T23:08:25.072Z,8.10
2018-12-30T23:09:25.047Z,8.17
2018-12-30T23:10:25.025Z,8.15
2018-12-30T23:11:25.014Z,8.21
2018-12-30T23:12:25.001Z,8.12
2018-12-30T23:13:24.989Z,8.26
2018-12-30T23:14:25.001Z,8.12
2018-12-30T23:15:24.967Z,8.14
2018-12-30T23:16:24.959Z,8.12
2018-12-30T23:17:24.948Z,8.29
2018-12-30T23:18:24.934Z,8.12
2018-12-30T23:19:24.940Z,8.21
2018-12-30T23:20:24.910Z,8.32
2018-12-30T23:21:24.902Z,8.30
2018-12-30T23:22:24.885Z,8.14
2018-12-30T23:23:24.875Z,8.15
2018-12-30T23:24:24.880Z,8.32
2018-12-30T23:25:24.852Z,8.26
2018-12-30T23:26:24.851Z,8.26
2018-12-30T23:27:24.832Z,8.36
2018-12-30T23:28:24.816Z,8.18
2018-12-30T23:29:24.831Z,8.22
2018-12-30T23:30:24.794Z,8.26
2018-12-30T23:31:24.782Z,8.30
2018-12-30T23:32:24.769Z,8.29
2018-12-30T23:33:24.761Z,8.29
2018-12-30T23:34:24.750Z,8.26
2018-12-30T23:35:24.754Z,8.30
2018-12-30T23:36:24.723Z,8.33
2018-12-30T23:37:24.713Z,8.36
2018-12-30T23:38:24.704Z,8.30
2018-12-30T23:39:24.688Z,8.33
2018-12-30T23:40:24.696Z,8.30
2018-12-30T23:41:24.667Z,8.26
2018-12-30T23:42:24.654Z,8.37
2018-12-30T23:43:24.647Z,8.30
2018-12-30T23:44:24.632Z,8.26
2018-12-30T23:45:24.660Z,8.25
2018-12-30T23:46:24.610Z,8.22
2018-12-30T23:47:24.599Z,8.25
2018-12-30T23:48:24.588Z,8.33
2018-12-30T23:49:24.580Z,8.39
2018-12-30T23:50:24.566Z,8.47
2018-12-30T23:51:24.568Z,8.22
2018-12-30T23:52:24.542Z,8.32
2018-12-30T23:53:24.525Z,8.29
2018-12-30T23:54:24.514Z,8.29
2018-12-30T23:55:24.502Z,8.26
2018-12-30T23:56:24.510Z,8.26
2018-12-30T23:57:24.478Z,8.35
2018-12-30T23:58:24.476Z,8.44
2018-12-30T23:59:24.459Z,8.30
